Terminal Aerodrome Forecast
Issued by NWS Charleston, WV

Current Version | Previous Version | Text Only | Print | Product List | Glossary Off
Versions: 1 2 3 4 5 6 7 8 9 10 11 12 13 14 15 16 17 18 19 20 21 22 23

000
FTUS41 KRLX 210500 AAC
TAFBKW
TAF AMD
KBKW 210503Z 2105/2124 15011KT P6SM SCT012 BKN070
     FM211400 VRB03KT P6SM SCT007 BKN120
     FM211500 13005KT P6SM BKN050
     FM212000 13005KT P6SM VCTS BKN050CB
     FM212300 14005KT P6SM BKN100=

USA.gov is the U.S. government's official web portal to all federal, state and local government web resources and services.